createdAt,value
2018-11-14T00:01:14.731Z,98690.97
2018-11-14T00:11:33.358Z,98701.44
2018-11-14T00:21:52.142Z,98696.94
2018-11-14T00:32:10.836Z,98700.45
2018-11-14T00:42:29.653Z,98710.20
2018-11-14T00:52:48.258Z,98713.44
2018-11-14T01:03:06.925Z,98708.25
2018-11-14T01:13:26.097Z,98705.00
2018-11-14T01:23:44.712Z,98695.98
2018-11-14T01:34:03.489Z,98699.39
2018-11-14T01:44:21.999Z,98692.11
2018-11-14T01:54:40.889Z,98686.61
2018-11-14T02:04:59.658Z,98683.69
2018-11-14T02:15:22.282Z,98682.09
2018-11-14T02:25:40.721Z,98675.28
2018-11-14T02:35:59.556Z,98687.29
2018-11-14T02:46:18.116Z,98678.11
2018-11-14T02:56:37.413Z,98676.14
2018-11-14T03:06:56.096Z,98681.72
2018-11-14T03:17:15.833Z,98668.30
2018-11-14T03:27:34.835Z,98680.63
2018-11-14T03:37:53.879Z,98681.05
2018-11-14T03:48:12.644Z,98680.03
2018-11-14T03:58:31.956Z,98684.58
2018-11-14T04:08:50.982Z,98685.72
2018-11-14T04:19:09.516Z,98694.81
2018-11-14T04:29:28.474Z,98687.12
2018-11-14T04:39:47.166Z,98684.58
2018-11-14T04:50:08.191Z,98688.54
2018-11-14T05:00:26.857Z,98693.90
2018-11-14T05:10:45.404Z,98702.14
2018-11-14T05:21:04.552Z,98705.64
2018-11-14T05:31:23.409Z,98695.59
2018-11-14T05:41:42.524Z,98702.55
2018-11-14T05:52:01.250Z,98693.16
2018-11-14T06:02:20.243Z,98694.16
2018-11-14T06:12:40.329Z,98706.47
2018-11-14T06:22:59.087Z,98699.59
2018-11-14T06:33:00.161Z,98710.61
2018-11-14T06:43:00.352Z,98721.41
2018-11-14T06:53:02.010Z,98732.66
2018-11-14T07:03:06.335Z,98727.84
2018-11-14T07:13:12.761Z,98730.14
2018-11-14T07:23:12.962Z,98724.11
2018-11-14T07:33:13.007Z,98729.28
2018-11-14T07:43:13.143Z,98721.92
2018-11-14T07:53:32.600Z,98714.23
2018-11-14T08:03:52.326Z,98727.83
2018-11-14T08:14:10.989Z,98713.05
2018-11-14T08:24:30.013Z,98709.27
2018-11-14T08:34:49.157Z,98686.89
2018-11-14T08:45:09.485Z,98684.85
2018-11-14T08:55:28.204Z,98689.64
2018-11-14T09:05:47.049Z,98684.27
2018-11-14T09:16:05.731Z,98669.77
2018-11-14T09:26:24.533Z,98649.95
2018-11-14T09:36:43.168Z,98639.70
2018-11-14T09:47:01.865Z,98629.31
2018-11-14T09:57:20.605Z,98601.28
2018-11-14T10:07:39.439Z,98608.40
2018-11-14T10:17:58.159Z,98602.57
2018-11-14T10:28:17.151Z,98586.34
2018-11-14T10:38:36.216Z,98582.26
2018-11-14T10:48:54.916Z,98582.16
2018-11-14T10:59:13.549Z,98574.05
2018-11-14T11:09:50.714Z,98571.41
2018-11-14T11:20:09.744Z,98549.43
2018-11-14T11:30:28.241Z,98536.98
2018-11-14T11:40:47.651Z,98518.80
2018-11-14T11:51:06.343Z,98498.30
2018-11-14T12:01:24.964Z,98489.86
2018-11-14T12:11:43.784Z,98488.51
2018-11-14T12:22:02.767Z,98501.16
2018-11-14T12:32:21.707Z,98489.58
2018-11-14T12:42:40.366Z,98472.55
2018-11-14T12:52:59.629Z,98463.27
2018-11-14T13:03:18.610Z,98433.61
2018-11-14T13:13:47.482Z,98438.60
2018-11-14T13:24:05.928Z,98437.19
2018-11-14T13:34:25.269Z,98425.30
2018-11-14T13:44:44.767Z,98438.56
2018-11-14T13:55:09.257Z,98440.20
2018-11-14T14:05:30.499Z,98464.01
2018-11-14T14:15:50.759Z,98452.84
2018-11-14T14:26:12.442Z,98456.47
2018-11-14T14:36:31.478Z,98457.12
2018-11-14T14:46:50.127Z,98461.03
2018-11-14T14:57:08.888Z,98457.44
2018-11-14T15:07:27.490Z,98460.95
2018-11-14T15:17:46.177Z,98471.53
2018-11-14T15:28:05.225Z,98482.70
2018-11-14T15:38:24.289Z,98492.34
2018-11-14T15:48:43.150Z,98502.11
2018-11-14T15:59:01.951Z,98507.92
2018-11-14T16:09:20.612Z,98509.20
2018-11-14T16:19:39.476Z,98513.02
2018-11-14T16:29:58.356Z,98509.78
2018-11-14T16:40:21.315Z,98531.46
2018-11-14T16:50:40.441Z,98528.58
2018-11-14T17:00:59.195Z,98529.16
2018-11-14T17:11:17.952Z,98546.52
2018-11-14T17:21:36.803Z,98539.68
2018-11-14T17:31:55.369Z,98537.16
2018-11-14T17:42:13.999Z,98539.00
2018-11-14T17:52:32.525Z,98547.13
2018-11-14T18:02:51.214Z,98554.22
2018-11-14T18:13:09.819Z,98554.17
2018-11-14T18:23:28.414Z,98556.06
2018-11-14T18:33:47.233Z,98550.37
2018-11-14T18:44:05.990Z,98561.77
2018-11-14T18:54:25.273Z,98562.33
2018-11-14T19:04:44.346Z,98558.22
2018-11-14T19:15:03.882Z,98569.77
2018-11-14T19:25:30.195Z,98576.84
2018-11-14T19:35:49.442Z,98582.02
2018-11-14T19:46:08.713Z,98580.58
2018-11-14T19:56:27.656Z,98592.41
2018-11-14T20:06:47.004Z,98595.61
2018-11-14T20:17:06.125Z,98582.06
2018-11-14T20:27:25.374Z,98582.18
2018-11-14T20:37:44.828Z,98577.42
2018-11-14T20:48:03.987Z,98583.13
2018-11-14T20:58:23.138Z,98583.55
2018-11-14T21:08:42.467Z,98582.98
2018-11-14T21:19:01.755Z,98579.11
2018-11-14T21:29:21.422Z,98578.35
2018-11-14T21:39:40.758Z,98575.39
2018-11-14T21:50:00.096Z,98580.98
2018-11-14T22:00:31.206Z,98579.42
2018-11-14T22:10:50.183Z,98580.61
2018-11-14T22:21:09.340Z,98565.56
2018-11-14T22:31:28.704Z,98553.52
2018-11-14T22:41:47.727Z,98536.75
2018-11-14T22:52:07.321Z,98536.75
2018-11-14T23:02:26.380Z,98535.48
2018-11-14T23:12:45.845Z,98546.63
2018-11-14T23:23:05.615Z,98536.44
2018-11-14T23:33:27.155Z,98516.86
2018-11-14T23:43:47.621Z,98512.73
2018-11-14T23:54:07.239Z,98504.67
